sensor_id;sensor_type;location;lat;lon;timestamp;temperature;humidity
46900;DHT22;32647;49.382;7.078;2022-07-09T00:02:10;15.10;99.90
46900;DHT22;32647;49.382;7.078;2022-07-09T00:04:56;15.10;99.90
46900;DHT22;32647;49.382;7.078;2022-07-09T00:07:42;15.10;99.90
46900;DHT22;32647;49.382;7.078;2022-07-09T00:10:28;15.00;99.90
46900;DHT22;32647;49.382;7.078;2022-07-09T00:13:14;14.70;1.00
46900;DHT22;32647;49.382;7.078;2022-07-09T00:16:00;14.50;99.90
46900;DHT22;32647;49.382;7.078;2022-07-09T00:18:46;14.30;99.90
46900;DHT22;32647;49.382;7.078;2022-07-09T00:21:32;14.10;99.90
46900;DHT22;32647;49.382;7.078;2022-07-09T00:24:18;14.10;99.90
46900;DHT22;32647;49.382;7.078;2022-07-09T00:27:05;14.00;1.00
46900;DHT22;32647;49.382;7.078;2022-07-09T00:29:51;13.90;1.00
46900;DHT22;32647;49.382;7.078;2022-07-09T00:32:37;13.80;99.90
46900;DHT22;32647;49.382;7.078;2022-07-09T00:35:23;13.70;99.90
46900;DHT22;32647;49.382;7.078;2022-07-09T00:38:09;13.60;99.90
46900;DHT22;32647;49.382;7.078;2022-07-09T00:40:55;13.50;1.00
46900;DHT22;32647;49.382;7.078;2022-07-09T00:43:48;13.60;1.00
46900;DHT22;32647;49.382;7.078;2022-07-09T00:46:34;13.50;1.00
46900;DHT22;32647;49.382;7.078;2022-07-09T00:49:20;13.40;1.00
46900;DHT22;32647;49.382;7.078;2022-07-09T00:52:09;13.40;1.00
46900;DHT22;32647;49.382;7.078;2022-07-09T00:54:56;13.50;1.00
46900;DHT22;32647;49.382;7.078;2022-07-09T00:57:44;13.40;1.00
46900;DHT22;32647;49.382;7.078;2022-07-09T01:00:30;13.40;1.00
46900;DHT22;32647;49.382;7.078;2022-07-09T01:03:16;13.40;1.00
46900;DHT22;32647;49.382;7.078;2022-07-09T01:06:02;13.30;1.00
46900;DHT22;32647;49.382;7.078;2022-07-09T01:08:48;13.30;1.00
46900;DHT22;32647;49.382;7.078;2022-07-09T01:11:34;13.20;1.00
46900;DHT22;32647;49.382;7.078;2022-07-09T01:14:21;13.10;1.00
46900;DHT22;32647;49.382;7.078;2022-07-09T01:17:07;13.00;1.00
46900;DHT22;32647;49.382;7.078;2022-07-09T01:19:53;13.00;4.40
46900;DHT22;32647;49.382;7.078;2022-07-09T01:22:40;12.90;19.80
46900;DHT22;32647;49.382;7.078;2022-07-09T01:28:22;12.70;46.70
46900;DHT22;32647;49.382;7.078;2022-07-09T01:31:08;12.80;27.00
46900;DHT22;32647;49.382;7.078;2022-07-09T01:33:54;12.70;46.90
46900;DHT22;32647;49.382;7.078;2022-07-09T01:36:40;12.70;44.00
46900;DHT22;32647;49.382;7.078;2022-07-09T01:39:27;12.60;52.30
46900;DHT22;32647;49.382;7.078;2022-07-09T01:42:12;12.60;50.50
46900;DHT22;32647;49.382;7.078;2022-07-09T01:44:58;12.60;51.70
46900;DHT22;32647;49.382;7.078;2022-07-09T01:47:44;12.60;58.60
46900;DHT22;32647;49.382;7.078;2022-07-09T01:50:31;12.50;54.70
46900;DHT22;32647;49.382;7.078;2022-07-09T01:53:17;12.40;60.60
46900;DHT22;32647;49.382;7.078;2022-07-09T01:56:07;12.40;60.40
46900;DHT22;32647;49.382;7.078;2022-07-09T01:58:53;12.40;54.50
46900;DHT22;32647;49.382;7.078;2022-07-09T02:01:39;12.50;50.00
46900;DHT22;32647;49.382;7.078;2022-07-09T02:04:25;12.40;46.00
46900;DHT22;32647;49.382;7.078;2022-07-09T02:07:12;12.50;30.30
46900;DHT22;32647;49.382;7.078;2022-07-09T02:09:58;12.60;17.70
46900;DHT22;32647;49.382;7.078;2022-07-09T02:12:45;12.50;32.20
46900;DHT22;32647;49.382;7.078;2022-07-09T02:15:31;12.40;44.90
46900;DHT22;32647;49.382;7.078;2022-07-09T02:18:17;12.50;28.40
46900;DHT22;32647;49.382;7.078;2022-07-09T02:21:04;12.50;47.10
46900;DHT22;32647;49.382;7.078;2022-07-09T02:23:50;12.30;67.60
46900;DHT22;32647;49.382;7.078;2022-07-09T02:26:38;12.20;87.00
46900;DHT22;32647;49.382;7.078;2022-07-09T02:29:24;12.10;87.60
46900;DHT22;32647;49.382;7.078;2022-07-09T02:32:11;12.10;88.10
46900;DHT22;32647;49.382;7.078;2022-07-09T02:34:57;12.10;80.50
46900;DHT22;32647;49.382;7.078;2022-07-09T02:37:43;12.10;91.30
46900;DHT22;32647;49.382;7.078;2022-07-09T02:40:29;12.10;90.40
46900;DHT22;32647;49.382;7.078;2022-07-09T02:43:15;12.10;84.90
46900;DHT22;32647;49.382;7.078;2022-07-09T02:46:01;12.10;91.80
46900;DHT22;32647;49.382;7.078;2022-07-09T02:48:49;12.00;88.70
46900;DHT22;32647;49.382;7.078;2022-07-09T02:51:35;12.00;87.60
46900;DHT22;32647;49.382;7.078;2022-07-09T02:54:21;11.90;92.50
46900;DHT22;32647;49.382;7.078;2022-07-09T02:57:07;11.90;92.50
46900;DHT22;32647;49.382;7.078;2022-07-09T02:59:53;11.80;96.50
46900;DHT22;32647;49.382;7.078;2022-07-09T03:02:39;11.90;92.40
46900;DHT22;32647;49.382;7.078;2022-07-09T03:05:25;11.80;92.60
46900;DHT22;32647;49.382;7.078;2022-07-09T03:08:11;11.70;96.00
46900;DHT22;32647;49.382;7.078;2022-07-09T03:10:57;11.80;95.10
46900;DHT22;32647;49.382;7.078;2022-07-09T03:13:43;11.70;94.40
46900;DHT22;32647;49.382;7.078;2022-07-09T03:16:29;11.60;99.50
46900;DHT22;32647;49.382;7.078;2022-07-09T03:19:16;11.60;97.10
46900;DHT22;32647;49.382;7.078;2022-07-09T03:22:02;11.60;96.60
46900;DHT22;32647;49.382;7.078;2022-07-09T03:24:48;11.60;98.10
46900;DHT22;32647;49.382;7.078;2022-07-09T03:27:34;11.60;99.90
46900;DHT22;32647;49.382;7.078;2022-07-09T03:30:21;11.60;99.90
46900;DHT22;32647;49.382;7.078;2022-07-09T03:33:07;11.60;99.90
46900;DHT22;32647;49.382;7.078;2022-07-09T03:35:54;11.60;99.90
46900;DHT22;32647;49.382;7.078;2022-07-09T03:38:41;11.50;99.90
46900;DHT22;32647;49.382;7.078;2022-07-09T03:41:27;11.50;99.90
46900;DHT22;32647;49.382;7.078;2022-07-09T03:44:13;11.60;99.80
46900;DHT22;32647;49.382;7.078;2022-07-09T03:47:00;11.50;99.90
46900;DHT22;32647;49.382;7.078;2022-07-09T03:49:46;11.40;99.90
46900;DHT22;32647;49.382;7.078;2022-07-09T03:52:32;11.60;99.10
46900;DHT22;32647;49.382;7.078;2022-07-09T03:55:18;11.60;99.10
46900;DHT22;32647;49.382;7.078;2022-07-09T03:58:05;11.60;97.30
46900;DHT22;32647;49.382;7.078;2022-07-09T04:00:51;11.60;96.60
46900;DHT22;32647;49.382;7.078;2022-07-09T04:03:38;11.70;97.20
46900;DHT22;32647;49.382;7.078;2022-07-09T04:06:25;11.60;99.90
46900;DHT22;32647;49.382;7.078;2022-07-09T04:09:11;11.60;99.60
46900;DHT22;32647;49.382;7.078;2022-07-09T04:11:57;11.70;98.80
46900;DHT22;32647;49.382;7.078;2022-07-09T04:14:43;11.70;99.70
46900;DHT22;32647;49.382;7.078;2022-07-09T04:17:29;11.70;98.50
46900;DHT22;32647;49.382;7.078;2022-07-09T04:20:15;11.80;94.70
46900;DHT22;32647;49.382;7.078;2022-07-09T04:23:01;11.90;98.30
46900;DHT22;32647;49.382;7.078;2022-07-09T04:25:47;12.00;93.90
46900;DHT22;32647;49.382;7.078;2022-07-09T04:28:35;12.10;93.80
46900;DHT22;32647;49.382;7.078;2022-07-09T04:31:22;12.10;94.20
46900;DHT22;32647;49.382;7.078;2022-07-09T04:34:08;12.00;97.30
46900;DHT22;32647;49.382;7.078;2022-07-09T04:36:54;12.10;94.30
46900;DHT22;32647;49.382;7.078;2022-07-09T04:39:40;12.20;92.70
46900;DHT22;32647;49.382;7.078;2022-07-09T04:42:26;12.30;91.30
46900;DHT22;32647;49.382;7.078;2022-07-09T04:45:12;12.40;90.60
46900;DHT22;32647;49.382;7.078;2022-07-09T04:47:58;12.50;87.70
46900;DHT22;32647;49.382;7.078;2022-07-09T04:50:45;12.60;85.80
46900;DHT22;32647;49.382;7.078;2022-07-09T04:53:31;12.70;64.70
46900;DHT22;32647;49.382;7.078;2022-07-09T04:56:17;12.80;76.00
46900;DHT22;32647;49.382;7.078;2022-07-09T04:59:03;12.80;78.70
46900;DHT22;32647;49.382;7.078;2022-07-09T05:01:49;12.90;76.30
46900;DHT22;32647;49.382;7.078;2022-07-09T05:04:35;12.90;68.60
46900;DHT22;32647;49.382;7.078;2022-07-09T05:07:22;13.00;58.80
46900;DHT22;32647;49.382;7.078;2022-07-09T05:10:08;13.00;56.50
46900;DHT22;32647;49.382;7.078;2022-07-09T05:12:54;13.20;54.40
46900;DHT22;32647;49.382;7.078;2022-07-09T05:15:41;13.30;28.40
46900;DHT22;32647;49.382;7.078;2022-07-09T05:18:26;13.40;42.30
46900;DHT22;32647;49.382;7.078;2022-07-09T05:21:15;13.40;43.00
46900;DHT22;32647;49.382;7.078;2022-07-09T05:24:01;13.50;37.90
46900;DHT22;32647;49.382;7.078;2022-07-09T05:26:47;13.60;37.90
46900;DHT22;32647;49.382;7.078;2022-07-09T05:29:33;13.60;56.40
46900;DHT22;32647;49.382;7.078;2022-07-09T05:32:20;13.80;29.80
46900;DHT22;32647;49.382;7.078;2022-07-09T05:35:06;14.00;24.30
46900;DHT22;32647;49.382;7.078;2022-07-09T05:37:52;14.00;33.80
46900;DHT22;32647;49.382;7.078;2022-07-09T05:40:38;14.10;1.00
46900;DHT22;32647;49.382;7.078;2022-07-09T05:43:24;14.30;17.90
46900;DHT22;32647;49.382;7.078;2022-07-09T05:46:11;14.40;11.80
46900;DHT22;32647;49.382;7.078;2022-07-09T05:48:57;14.60;1.00
46900;DHT22;32647;49.382;7.078;2022-07-09T05:51:43;14.80;1.00
46900;DHT22;32647;49.382;7.078;2022-07-09T05:54:29;14.90;1.00
46900;DHT22;32647;49.382;7.078;2022-07-09T05:57:15;15.00;1.00
46900;DHT22;32647;49.382;7.078;2022-07-09T06:00:01;15.30;1.00
46900;DHT22;32647;49.382;7.078;2022-07-09T06:02:49;15.40;1.00
46900;DHT22;32647;49.382;7.078;2022-07-09T06:05:36;15.60;1.00
46900;DHT22;32647;49.382;7.078;2022-07-09T06:08:22;15.70;1.00
46900;DHT22;32647;49.382;7.078;2022-07-09T06:11:08;15.80;1.00
46900;DHT22;32647;49.382;7.078;2022-07-09T06:13:54;16.00;1.00
46900;DHT22;32647;49.382;7.078;2022-07-09T06:16:40;16.10;99.90
46900;DHT22;32647;49.382;7.078;2022-07-09T06:19:26;16.20;99.90
46900;DHT22;32647;49.382;7.078;2022-07-09T06:22:12;16.40;63.50
46900;DHT22;32647;49.382;7.078;2022-07-09T06:24:59;16.50;99.90
46900;DHT22;32647;49.382;7.078;2022-07-09T06:27:45;16.70;1.00
46900;DHT22;32647;49.382;7.078;2022-07-09T06:30:32;16.80;1.00
46900;DHT22;32647;49.382;7.078;2022-07-09T06:33:19;17.00;99.90
46900;DHT22;32647;49.382;7.078;2022-07-09T06:36:05;17.00;1.00
46900;DHT22;32647;49.382;7.078;2022-07-09T06:38:52;17.10;1.00
46900;DHT22;32647;49.382;7.078;2022-07-09T06:42:04;17.30;1.00
46900;DHT22;32647;49.382;7.078;2022-07-09T06:44:51;17.40;1.00
46900;DHT22;32647;49.382;7.078;2022-07-09T06:47:37;17.50;99.90
46900;DHT22;32647;49.382;7.078;2022-07-09T06:50:23;17.70;52.70
46900;DHT22;32647;49.382;7.078;2022-07-09T06:53:09;17.80;99.90
46900;DHT22;32647;49.382;7.078;2022-07-09T06:55:55;17.80;99.90
46900;DHT22;32647;49.382;7.078;2022-07-09T06:58:41;18.00;73.60
46900;DHT22;32647;49.382;7.078;2022-07-09T07:01:27;18.10;1.00
46900;DHT22;32647;49.382;7.078;2022-07-09T07:04:13;18.20;85.40
46900;DHT22;32647;49.382;7.078;2022-07-09T07:07:00;18.40;1.00
46900;DHT22;32647;49.382;7.078;2022-07-09T07:09:46;18.50;99.90
46900;DHT22;32647;49.382;7.078;2022-07-09T07:12:32;18.70;99.90
46900;DHT22;32647;49.382;7.078;2022-07-09T07:15:18;18.90;99.90
46900;DHT22;32647;49.382;7.078;2022-07-09T07:18:04;19.00;99.90
46900;DHT22;32647;49.382;7.078;2022-07-09T07:20:50;19.30;99.90
46900;DHT22;32647;49.382;7.078;2022-07-09T07:23:36;19.50;1.00
46900;DHT22;32647;49.382;7.078;2022-07-09T07:26:22;19.60;1.00
46900;DHT22;32647;49.382;7.078;2022-07-09T07:29:08;19.70;1.00
46900;DHT22;32647;49.382;7.078;2022-07-09T07:31:54;19.90;1.00
46900;DHT22;32647;49.382;7.078;2022-07-09T07:34:42;20.20;1.00
46900;DHT22;32647;49.382;7.078;2022-07-09T07:37:28;20.50;99.90
46900;DHT22;32647;49.382;7.078;2022-07-09T07:40:14;20.40;99.90
46900;DHT22;32647;49.382;7.078;2022-07-09T07:45:36;20.80;99.90
46900;DHT22;32647;49.382;7.078;2022-07-09T07:48:22;20.90;99.90
46900;DHT22;32647;49.382;7.078;2022-07-09T07:51:08;21.10;99.90
46900;DHT22;32647;49.382;7.078;2022-07-09T07:53:54;21.00;99.90
46900;DHT22;32647;49.382;7.078;2022-07-09T07:56:40;21.10;99.90
46900;DHT22;32647;49.382;7.078;2022-07-09T07:59:26;21.20;99.90
46900;DHT22;32647;49.382;7.078;2022-07-09T08:02:12;21.40;99.90
46900;DHT22;32647;49.382;7.078;2022-07-09T08:04:58;21.40;99.90
46900;DHT22;32647;49.382;7.078;2022-07-09T08:07:44;21.60;99.90
46900;DHT22;32647;49.382;7.078;2022-07-09T08:10:30;21.60;99.90
46900;DHT22;32647;49.382;7.078;2022-07-09T08:13:16;21.40;99.90
46900;DHT22;32647;49.382;7.078;2022-07-09T08:16:02;21.40;99.90
46900;DHT22;32647;49.382;7.078;2022-07-09T08:18:48;21.60;99.90
46900;DHT22;32647;49.382;7.078;2022-07-09T08:21:34;21.90;99.90
46900;DHT22;32647;49.382;7.078;2022-07-09T08:24:20;22.10;99.90
46900;DHT22;32647;49.382;7.078;2022-07-09T08:27:06;22.20;99.90
46900;DHT22;32647;49.382;7.078;2022-07-09T08:29:53;22.60;99.90
46900;DHT22;32647;49.382;7.078;2022-07-09T08:32:39;22.50;99.90
46900;DHT22;32647;49.382;7.078;2022-07-09T08:35:25;22.70;99.90
46900;DHT22;32647;49.382;7.078;2022-07-09T08:38:11;22.40;99.90
46900;DHT22;32647;49.382;7.078;2022-07-09T08:41:00;21.90;99.90
46900;DHT22;32647;49.382;7.078;2022-07-09T08:43:50;22.30;99.90
46900;DHT22;32647;49.382;7.078;2022-07-09T08:46:37;22.30;99.90
46900;DHT22;32647;49.382;7.078;2022-07-09T08:49:24;22.10;99.90
46900;DHT22;32647;49.382;7.078;2022-07-09T08:52:12;22.50;99.90
46900;DHT22;32647;49.382;7.078;2022-07-09T08:54:59;22.80;99.90
46900;DHT22;32647;49.382;7.078;2022-07-09T08:57:45;22.90;99.90
46900;DHT22;32647;49.382;7.078;2022-07-09T09:00:32;22.90;99.90
46900;DHT22;32647;49.382;7.078;2022-07-09T09:03:18;23.50;99.90
46900;DHT22;32647;49.382;7.078;2022-07-09T09:06:06;24.00;99.90
46900;DHT22;32647;49.382;7.078;2022-07-09T09:08:54;24.50;99.90
46900;DHT22;32647;49.382;7.078;2022-07-09T09:11:40;24.80;99.90
46900;DHT22;32647;49.382;7.078;2022-07-09T09:14:30;25.00;99.90
46900;DHT22;32647;49.382;7.078;2022-07-09T09:17:16;24.50;99.90
46900;DHT22;32647;49.382;7.078;2022-07-09T09:20:15;23.90;99.90
46900;DHT22;32647;49.382;7.078;2022-07-09T09:23:02;22.80;99.90
46900;DHT22;32647;49.382;7.078;2022-07-09T09:25:50;22.30;99.90
46900;DHT22;32647;49.382;7.078;2022-07-09T09:28:48;22.30;99.90
46900;DHT22;32647;49.382;7.078;2022-07-09T09:31:36;22.50;99.90
46900;DHT22;32647;49.382;7.078;2022-07-09T09:34:22;22.80;99.90
46900;DHT22;32647;49.382;7.078;2022-07-09T09:37:09;22.90;99.90
46900;DHT22;32647;49.382;7.078;2022-07-09T09:39:56;23.40;99.90
46900;DHT22;32647;49.382;7.078;2022-07-09T09:42:42;23.40;99.90
46900;DHT22;32647;49.382;7.078;2022-07-09T09:45:29;23.40;99.90
46900;DHT22;32647;49.382;7.078;2022-07-09T09:48:16;23.50;99.90
46900;DHT22;32647;49.382;7.078;2022-07-09T09:51:05;22.90;99.90
46900;DHT22;32647;49.382;7.078;2022-07-09T09:53:52;22.80;99.90
46900;DHT22;32647;49.382;7.078;2022-07-09T09:56:40;23.30;99.90
46900;DHT22;32647;49.382;7.078;2022-07-09T09:59:26;24.00;99.90
46900;DHT22;32647;49.382;7.078;2022-07-09T10:02:12;24.30;99.90
46900;DHT22;32647;49.382;7.078;2022-07-09T10:04:59;24.90;99.90
46900;DHT22;32647;49.382;7.078;2022-07-09T10:07:46;25.20;99.90
46900;DHT22;32647;49.382;7.078;2022-07-09T10:10:32;25.00;99.90
46900;DHT22;32647;49.382;7.078;2022-07-09T10:13:21;24.40;99.90
46900;DHT22;32647;49.382;7.078;2022-07-09T10:16:07;23.80;99.90
46900;DHT22;32647;49.382;7.078;2022-07-09T10:18:53;23.50;99.90
46900;DHT22;32647;49.382;7.078;2022-07-09T10:21:41;23.50;99.90
46900;DHT22;32647;49.382;7.078;2022-07-09T10:24:29;23.60;99.90
46900;DHT22;32647;49.382;7.078;2022-07-09T10:27:16;23.50;99.90
46900;DHT22;32647;49.382;7.078;2022-07-09T10:30:02;24.20;99.90
46900;DHT22;32647;49.382;7.078;2022-07-09T10:33:01;24.90;99.90
46900;DHT22;32647;49.382;7.078;2022-07-09T10:35:49;25.00;99.90
46900;DHT22;32647;49.382;7.078;2022-07-09T10:38:37;24.50;99.90
46900;DHT22;32647;49.382;7.078;2022-07-09T10:41:26;24.40;99.90
46900;DHT22;32647;49.382;7.078;2022-07-09T10:44:27;23.80;99.90
46900;DHT22;32647;49.382;7.078;2022-07-09T10:47:13;24.00;99.90
46900;DHT22;32647;49.382;7.078;2022-07-09T10:50:03;23.90;99.90
46900;DHT22;32647;49.382;7.078;2022-07-09T10:52:50;23.60;99.90
46900;DHT22;32647;49.382;7.078;2022-07-09T10:55:36;23.50;99.90
46900;DHT22;32647;49.382;7.078;2022-07-09T10:58:24;23.50;99.90
46900;DHT22;32647;49.382;7.078;2022-07-09T11:01:10;24.40;99.90
46900;DHT22;32647;49.382;7.078;2022-07-09T11:04:04;25.10;99.90
46900;DHT22;32647;49.382;7.078;2022-07-09T11:06:50;25.20;99.90
46900;DHT22;32647;49.382;7.078;2022-07-09T11:09:35;25.20;99.90
46900;DHT22;32647;49.382;7.078;2022-07-09T11:12:22;25.40;99.90
46900;DHT22;32647;49.382;7.078;2022-07-09T11:15:19;25.30;99.90
46900;DHT22;32647;49.382;7.078;2022-07-09T11:18:07;25.40;99.90
46900;DHT22;32647;49.382;7.078;2022-07-09T11:20:54;26.30;99.90
46900;DHT22;32647;49.382;7.078;2022-07-09T11:23:48;26.80;99.90
46900;DHT22;32647;49.382;7.078;2022-07-09T11:26:34;26.60;99.90
46900;DHT22;32647;49.382;7.078;2022-07-09T11:29:21;27.70;99.90
46900;DHT22;32647;49.382;7.078;2022-07-09T11:32:07;28.60;99.90
46900;DHT22;32647;49.382;7.078;2022-07-09T11:34:53;28.50;99.90
46900;DHT22;32647;49.382;7.078;2022-07-09T11:37:45;27.00;99.90
46900;DHT22;32647;49.382;7.078;2022-07-09T11:40:31;26.20;99.90
46900;DHT22;32647;49.382;7.078;2022-07-09T11:43:17;26.30;99.90
46900;DHT22;32647;49.382;7.078;2022-07-09T11:46:03;26.80;99.90
46900;DHT22;32647;49.382;7.078;2022-07-09T11:48:53;26.90;99.90
46900;DHT22;32647;49.382;7.078;2022-07-09T11:51:40;26.80;99.90
46900;DHT22;32647;49.382;7.078;2022-07-09T11:54:28;26.70;99.90
46900;DHT22;32647;49.382;7.078;2022-07-09T11:57:20;27.80;99.90
46900;DHT22;32647;49.382;7.078;2022-07-09T12:00:19;27.60;99.90
46900;DHT22;32647;49.382;7.078;2022-07-09T12:03:06;27.20;99.90
46900;DHT22;32647;49.382;7.078;2022-07-09T12:05:53;26.70;99.90
46900;DHT22;32647;49.382;7.078;2022-07-09T12:08:39;26.10;99.90
46900;DHT22;32647;49.382;7.078;2022-07-09T12:11:29;25.60;99.90
46900;DHT22;32647;49.382;7.078;2022-07-09T12:14:16;25.70;99.90
46900;DHT22;32647;49.382;7.078;2022-07-09T12:17:02;26.00;99.90
46900;DHT22;32647;49.382;7.078;2022-07-09T12:19:49;26.80;99.90
46900;DHT22;32647;49.382;7.078;2022-07-09T12:22:35;27.10;99.90
46900;DHT22;32647;49.382;7.078;2022-07-09T12:25:21;26.40;99.90
46900;DHT22;32647;49.382;7.078;2022-07-09T12:28:07;26.10;99.90
46900;DHT22;32647;49.382;7.078;2022-07-09T12:30:53;27.10;99.90
46900;DHT22;32647;49.382;7.078;2022-07-09T12:33:39;27.60;99.90
46900;DHT22;32647;49.382;7.078;2022-07-09T12:36:25;27.50;99.90
46900;DHT22;32647;49.382;7.078;2022-07-09T12:39:11;28.00;99.90
46900;DHT22;32647;49.382;7.078;2022-07-09T12:41:57;27.20;99.90
46900;DHT22;32647;49.382;7.078;2022-07-09T12:44:47;27.40;99.90
46900;DHT22;32647;49.382;7.078;2022-07-09T12:47:34;27.20;99.90
46900;DHT22;32647;49.382;7.078;2022-07-09T12:50:20;26.80;99.90
46900;DHT22;32647;49.382;7.078;2022-07-09T12:53:06;26.20;99.90
46900;DHT22;32647;49.382;7.078;2022-07-09T12:55:52;26.00;99.90
46900;DHT22;32647;49.382;7.078;2022-07-09T12:58:38;26.50;99.90
46900;DHT22;32647;49.382;7.078;2022-07-09T13:01:24;27.30;99.90
46900;DHT22;32647;49.382;7.078;2022-07-09T13:04:10;27.20;99.90
46900;DHT22;32647;49.382;7.078;2022-07-09T13:06:56;27.40;99.90
46900;DHT22;32647;49.382;7.078;2022-07-09T13:09:42;26.90;99.90
46900;DHT22;32647;49.382;7.078;2022-07-09T13:12:28;26.40;99.90
46900;DHT22;32647;49.382;7.078;2022-07-09T13:15:14;26.80;99.90
46900;DHT22;32647;49.382;7.078;2022-07-09T13:18:00;26.30;99.90
46900;DHT22;32647;49.382;7.078;2022-07-09T13:20:46;26.30;99.90
46900;DHT22;32647;49.382;7.078;2022-07-09T13:23:32;26.40;99.90
46900;DHT22;32647;49.382;7.078;2022-07-09T13:26:18;26.30;99.90
46900;DHT22;32647;49.382;7.078;2022-07-09T13:29:04;26.10;99.90
46900;DHT22;32647;49.382;7.078;2022-07-09T13:31:50;26.10;99.90
46900;DHT22;32647;49.382;7.078;2022-07-09T13:34:36;26.60;99.90
46900;DHT22;32647;49.382;7.078;2022-07-09T13:37:22;27.00;99.90
46900;DHT22;32647;49.382;7.078;2022-07-09T13:40:09;26.40;99.90
46900;DHT22;32647;49.382;7.078;2022-07-09T13:42:55;26.40;99.90
46900;DHT22;32647;49.382;7.078;2022-07-09T13:45:41;27.70;99.90
46900;DHT22;32647;49.382;7.078;2022-07-09T13:48:27;27.50;99.90
46900;DHT22;32647;49.382;7.078;2022-07-09T13:51:13;28.80;99.90
46900;DHT22;32647;49.382;7.078;2022-07-09T13:53:59;28.90;99.90
46900;DHT22;32647;49.382;7.078;2022-07-09T13:56:45;29.00;99.90
46900;DHT22;32647;49.382;7.078;2022-07-09T13:59:31;28.30;99.90
46900;DHT22;32647;49.382;7.078;2022-07-09T14:02:17;27.60;99.90
46900;DHT22;32647;49.382;7.078;2022-07-09T14:05:04;27.20;99.90
46900;DHT22;32647;49.382;7.078;2022-07-09T14:07:50;26.30;99.90
46900;DHT22;32647;49.382;7.078;2022-07-09T14:10:36;26.00;99.90
46900;DHT22;32647;49.382;7.078;2022-07-09T14:13:22;25.70;99.90
46900;DHT22;32647;49.382;7.078;2022-07-09T14:16:08;25.60;99.90
46900;DHT22;32647;49.382;7.078;2022-07-09T14:18:54;25.40;99.90
46900;DHT22;32647;49.382;7.078;2022-07-09T14:21:41;25.60;99.90
46900;DHT22;32647;49.382;7.078;2022-07-09T14:24:27;25.60;99.90
46900;DHT22;32647;49.382;7.078;2022-07-09T14:27:13;25.60;99.90
46900;DHT22;32647;49.382;7.078;2022-07-09T14:29:59;25.90;99.90
46900;DHT22;32647;49.382;7.078;2022-07-09T14:32:45;25.80;99.90
46900;DHT22;32647;49.382;7.078;2022-07-09T14:35:32;25.70;99.90
46900;DHT22;32647;49.382;7.078;2022-07-09T14:38:18;26.00;99.90
46900;DHT22;32647;49.382;7.078;2022-07-09T14:41:04;26.30;99.90
46900;DHT22;32647;49.382;7.078;2022-07-09T14:43:50;26.20;99.90
46900;DHT22;32647;49.382;7.078;2022-07-09T14:46:36;26.10;99.90
46900;DHT22;32647;49.382;7.078;2022-07-09T14:49:22;25.90;99.90
46900;DHT22;32647;49.382;7.078;2022-07-09T14:52:15;25.60;99.90
46900;DHT22;32647;49.382;7.078;2022-07-09T14:55:01;25.50;99.90
46900;DHT22;32647;49.382;7.078;2022-07-09T14:57:47;25.70;99.90
46900;DHT22;32647;49.382;7.078;2022-07-09T15:00:33;25.50;99.90
46900;DHT22;32647;49.382;7.078;2022-07-09T15:03:19;25.40;99.90
46900;DHT22;32647;49.382;7.078;2022-07-09T15:06:08;25.40;99.90
46900;DHT22;32647;49.382;7.078;2022-07-09T15:08:54;25.50;99.90
46900;DHT22;32647;49.382;7.078;2022-07-09T15:11:40;25.20;99.90
46900;DHT22;32647;49.382;7.078;2022-07-09T15:14:26;25.20;99.90
46900;DHT22;32647;49.382;7.078;2022-07-09T15:17:12;25.20;99.90
46900;DHT22;32647;49.382;7.078;2022-07-09T15:19:58;25.10;99.90
46900;DHT22;32647;49.382;7.078;2022-07-09T15:22:44;25.20;99.90
46900;DHT22;32647;49.382;7.078;2022-07-09T15:25:30;25.10;99.90
46900;DHT22;32647;49.382;7.078;2022-07-09T15:28:16;25.40;99.90
46900;DHT22;32647;49.382;7.078;2022-07-09T15:31:02;25.50;99.90
46900;DHT22;32647;49.382;7.078;2022-07-09T15:33:49;25.80;99.90
46900;DHT22;32647;49.382;7.078;2022-07-09T15:36:36;25.90;99.90
46900;DHT22;32647;49.382;7.078;2022-07-09T15:39:22;25.80;99.90
46900;DHT22;32647;49.382;7.078;2022-07-09T15:42:07;25.70;99.90
46900;DHT22;32647;49.382;7.078;2022-07-09T15:44:55;25.80;99.90
46900;DHT22;32647;49.382;7.078;2022-07-09T15:47:41;25.70;99.90
46900;DHT22;32647;49.382;7.078;2022-07-09T15:50:27;25.80;99.90
46900;DHT22;32647;49.382;7.078;2022-07-09T15:53:13;25.90;99.90
46900;DHT22;32647;49.382;7.078;2022-07-09T15:55:59;25.80;99.90
46900;DHT22;32647;49.382;7.078;2022-07-09T15:58:46;26.10;99.90
46900;DHT22;32647;49.382;7.078;2022-07-09T16:01:32;26.20;99.90
46900;DHT22;32647;49.382;7.078;2022-07-09T16:04:18;26.30;99.90
46900;DHT22;32647;49.382;7.078;2022-07-09T16:07:04;26.10;99.90
46900;DHT22;32647;49.382;7.078;2022-07-09T16:09:50;25.60;99.90
46900;DHT22;32647;49.382;7.078;2022-07-09T16:12:36;25.70;99.90
46900;DHT22;32647;49.382;7.078;2022-07-09T16:15:41;25.40;99.90
46900;DHT22;32647;49.382;7.078;2022-07-09T16:18:27;25.50;99.90
46900;DHT22;32647;49.382;7.078;2022-07-09T16:21:13;26.10;99.90
46900;DHT22;32647;49.382;7.078;2022-07-09T16:23:59;25.90;99.90
46900;DHT22;32647;49.382;7.078;2022-07-09T16:26:45;25.80;99.90
46900;DHT22;32647;49.382;7.078;2022-07-09T16:29:34;25.40;99.90
46900;DHT22;32647;49.382;7.078;2022-07-09T16:32:20;25.20;99.90
46900;DHT22;32647;49.382;7.078;2022-07-09T16:35:07;25.40;99.90
46900;DHT22;32647;49.382;7.078;2022-07-09T16:37:53;25.90;99.90
46900;DHT22;32647;49.382;7.078;2022-07-09T16:40:40;26.50;99.90
46900;DHT22;32647;49.382;7.078;2022-07-09T16:43:26;26.80;99.90
46900;DHT22;32647;49.382;7.078;2022-07-09T16:46:12;26.70;99.90
46900;DHT22;32647;49.382;7.078;2022-07-09T16:48:58;26.70;99.90
46900;DHT22;32647;49.382;7.078;2022-07-09T16:51:44;26.80;99.90
46900;DHT22;32647;49.382;7.078;2022-07-09T16:54:30;27.80;99.90
46900;DHT22;32647;49.382;7.078;2022-07-09T16:57:16;27.00;99.90
46900;DHT22;32647;49.382;7.078;2022-07-09T17:00:03;26.60;99.90
46900;DHT22;32647;49.382;7.078;2022-07-09T17:02:50;25.70;99.90
46900;DHT22;32647;49.382;7.078;2022-07-09T17:05:35;26.20;99.90
46900;DHT22;32647;49.382;7.078;2022-07-09T17:08:21;26.70;99.90
46900;DHT22;32647;49.382;7.078;2022-07-09T17:11:07;26.40;99.90
46900;DHT22;32647;49.382;7.078;2022-07-09T17:13:53;25.70;99.90
46900;DHT22;32647;49.382;7.078;2022-07-09T17:16:40;25.50;99.90
46900;DHT22;32647;49.382;7.078;2022-07-09T17:19:26;25.40;99.90
46900;DHT22;32647;49.382;7.078;2022-07-09T17:22:12;25.80;99.90
46900;DHT22;32647;49.382;7.078;2022-07-09T17:24:58;26.10;99.90
46900;DHT22;32647;49.382;7.078;2022-07-09T17:27:44;25.80;99.90
46900;DHT22;32647;49.382;7.078;2022-07-09T17:30:30;25.30;99.90
46900;DHT22;32647;49.382;7.078;2022-07-09T17:33:16;25.00;99.90
46900;DHT22;32647;49.382;7.078;2022-07-09T17:36:02;24.80;99.90
46900;DHT22;32647;49.382;7.078;2022-07-09T17:38:48;24.70;99.90
46900;DHT22;32647;49.382;7.078;2022-07-09T17:41:34;24.60;99.90